Time;durP1;ratioP1;P1;durP2;ratioP2;P2;SDS_P1;SDS_P2;PMS_P1;PMS_P2;Temp;Humidity;BMP_temperature;BMP_pressure;BME280_temperature;BME280_humidity;BME280_pressure;Samples;Min_cycle;Max_cycle;Signal;HPM_P1;HPM_P2
2023/04/01 00:02:07;;;;;;;7.95;2.97;;;11.00;99.90;;;;;;6306200;22;20071;-89
2023/04/01 00:04:33;;;;;;;7.13;3.03;;;11.00;99.90;;;;;;6278664;22;20019;-89
2023/04/01 00:07:00;;;;;;;6.32;3.20;;;11.00;99.90;;;;;;6306633;22;20022;-89
2023/04/01 00:09:25;;;;;;;5.75;3.00;;;11.00;99.90;;;;;;6306454;22;20019;-89
2023/04/01 00:11:51;;;;;;;10.73;3.20;;;11.00;99.90;;;;;;6278866;22;20490;-89
2023/04/01 00:14:17;;;;;;;9.43;2.90;;;11.00;99.90;;;;;;6306257;22;20041;-88
2023/04/01 00:16:43;;;;;;;5.40;2.70;;;11.00;99.90;;;;;;6307193;22;20048;-90
2023/04/01 00:19:09;;;;;;;8.55;2.85;;;11.00;99.90;;;;;;6278804;22;20343;-88
2023/04/01 00:21:36;;;;;;;7.10;3.03;;;11.00;99.90;;;;;;6279872;22;20011;-90
2023/04/01 00:24:02;;;;;;;9.30;2.90;;;11.00;99.90;;;;;;6306682;22;20026;-90
2023/04/01 00:26:28;;;;;;;6.85;3.00;;;11.00;99.90;;;;;;6306075;22;20011;-90
2023/04/01 00:28:53;;;;;;;7.28;2.90;;;11.00;99.90;;;;;;6279349;22;20094;-91
2023/04/01 00:31:20;;;;;;;7.95;2.97;;;11.00;99.90;;;;;;6278992;22;20350;-88
2023/04/01 00:33:46;;;;;;;8.93;3.13;;;11.00;99.90;;;;;;6279125;22;20011;-90
2023/04/01 00:36:17;;;;;;;5.38;3.20;;;10.90;99.90;;;;;;6278913;22;20386;-91
2023/04/01 00:38:44;;;;;;;5.47;3.15;;;11.00;99.90;;;;;;6278930;22;20064;-90
2023/04/01 00:41:15;;;;;;;10.45;3.60;;;10.90;99.90;;;;;;6306958;22;20011;-90
2023/04/01 00:43:46;;;;;;;6.07;2.80;;;10.90;99.90;;;;;;6280122;22;20102;-90
2023/04/01 00:46:12;;;;;;;5.57;3.00;;;10.90;99.90;;;;;;6279716;22;20015;-89
2023/04/01 00:48:50;;;;;;;6.82;3.03;;;10.90;99.90;;;;;;6279762;22;20018;-89
2023/04/01 00:51:21;;;;;;;5.45;2.60;;;10.90;99.90;;;;;;6306644;22;20443;-88
2023/04/01 00:53:52;;;;;;;5.47;2.70;;;10.90;99.90;;;;;;6306727;22;20019;-88
2023/04/01 00:56:25;;;;;;;7.72;3.10;;;10.90;99.90;;;;;;6306844;22;20018;-87
2023/04/01 00:59:11;;;;;;;4.72;2.47;;;10.90;99.90;;;;;;6279871;22;20323;-87
2023/04/01 01:01:37;;;;;;;5.22;2.70;;;10.90;99.90;;;;;;6278436;22;20336;-88
2023/04/01 01:04:03;;;;;;;5.78;2.40;;;10.90;99.90;;;;;;6279733;22;20105;-88
2023/04/01 01:07:05;;;;;;;6.18;2.40;;;10.90;99.90;;;;;;6308607;22;20548;-88
2023/04/01 01:09:42;;;;;;;8.75;2.80;;;10.90;99.90;;;;;;6234422;22;20015;-88
2023/04/01 01:12:13;;;;;;;5.75;2.55;;;10.90;99.90;;;;;;6309624;22;20011;-88
2023/04/01 01:14:39;;;;;;;4.28;2.17;;;11.00;99.90;;;;;;6281669;22;20015;-88
2023/04/01 01:17:25;;;;;;;6.78;2.78;;;10.90;99.90;;;;;;6308407;22;20061;-88
2023/04/01 01:20:10;;;;;;;6.38;2.45;;;10.90;99.90;;;;;;6282159;22;20139;-88
2023/04/01 01:22:36;;;;;;;7.07;2.70;;;10.80;99.90;;;;;;6280888;22;20011;-89
2023/04/01 01:25:39;;;;;;;8.13;2.80;;;10.90;99.90;;;;;;6281731;22;20526;-88
2023/04/01 01:28:37;;;;;;;5.57;2.90;;;10.80;99.90;;;;;;6309346;22;20012;-88
2023/04/01 01:31:11;;;;;;;4.88;2.60;;;10.80;99.90;;;;;;6308081;22;20019;-88
2023/04/01 01:33:49;;;;;;;9.15;2.55;;;10.80;99.90;;;;;;6281595;22;20011;-88
2023/04/01 01:36:18;;;;;;;4.03;2.47;;;10.80;99.90;;;;;;6307675;22;20076;-88
2023/04/01 01:38:45;;;;;;;6.72;2.72;;;10.80;99.90;;;;;;6308898;22;20055;-88
2023/04/01 01:41:13;;;;;;;8.68;3.13;;;10.90;99.90;;;;;;6309023;22;20014;-88
2023/04/01 01:43:45;;;;;;;10.38;2.30;;;10.80;99.90;;;;;;6305379;22;20015;-88
2023/04/01 01:46:15;;;;;;;6.55;2.80;;;10.80;99.90;;;;;;6275637;22;20016;-88
2023/04/01 01:48:43;;;;;;;5.47;2.42;;;10.80;99.90;;;;;;6280779;22;20026;-88
2023/04/01 01:51:09;;;;;;;5.13;2.33;;;10.80;99.90;;;;;;6280622;22;20394;-88
2023/04/01 01:53:35;;;;;;;6.55;2.15;;;10.80;99.90;;;;;;6309033;22;20020;-88
2023/04/01 01:56:01;;;;;;;4.40;2.08;;;10.80;99.90;;;;;;6281313;22;20015;-88
2023/04/01 01:58:35;;;;;;;6.20;2.20;;;10.80;99.90;;;;;;6280079;22;20044;-88
2023/04/01 02:01:05;;;;;;;4.63;2.33;;;10.80;99.90;;;;;;6281410;22;20015;-88
2023/04/01 02:03:36;;;;;;;5.25;1.85;;;10.80;99.90;;;;;;6280814;22;20046;-88
2023/04/01 02:06:05;;;;;;;4.43;1.52;;;10.80;99.90;;;;;;6280491;22;20011;-88
2023/04/01 02:08:36;;;;;;;6.82;2.00;;;10.80;99.90;;;;;;6308353;22;20022;-89
2023/04/01 02:11:08;;;;;;;8.30;1.88;;;10.80;99.90;;;;;;6308317;22;20038;-88
2023/04/01 02:13:39;;;;;;;6.00;1.67;;;10.70;99.90;;;;;;6308218;22;20034;-89
2023/04/01 02:16:13;;;;;;;4.53;1.67;;;10.80;99.90;;;;;;6280938;22;20011;-89
2023/04/01 02:18:41;;;;;;;6.00;1.50;;;10.70;99.90;;;;;;6308120;22;20011;-89
2023/04/01 02:21:07;;;;;;;5.00;1.63;;;10.70;99.90;;;;;;6308767;22;20061;-89
2023/04/01 02:23:35;;;;;;;7.38;1.77;;;10.70;99.90;;;;;;6280620;22;20439;-89
2023/04/01 02:26:04;;;;;;;3.38;1.40;;;10.70;99.90;;;;;;6307550;22;20015;-89
2023/04/01 02:28:31;;;;;;;9.02;1.67;;;10.70;99.90;;;;;;6280614;22;20530;-88
2023/04/01 02:31:00;;;;;;;4.78;1.40;;;10.70;99.90;;;;;;6280915;22;20022;-88
2023/04/01 02:33:26;;;;;;;9.00;1.85;;;10.70;99.90;;;;;;6279749;22;20098;-88
2023/04/01 02:35:52;;;;;;;6.65;1.30;;;10.70;99.90;;;;;;6280930;22;20019;-89
2023/04/01 02:38:18;;;;;;;4.95;1.38;;;10.70;99.90;;;;;;6280876;22;20013;-89
2023/04/01 02:40:47;;;;;;;6.25;1.73;;;10.70;99.90;;;;;;6280145;22;20084;-89
2023/04/01 02:43:13;;;;;;;5.47;1.70;;;10.70;99.90;;;;;;6280332;22;20094;-90
2023/04/01 02:45:38;;;;;;;7.45;1.58;;;10.70;99.90;;;;;;6308186;22;20019;-89
2023/04/01 02:48:05;;;;;;;4.32;1.70;;;10.70;99.90;;;;;;6307619;22;20011;-88
2023/04/01 02:50:30;;;;;;;5.38;1.73;;;10.70;99.90;;;;;;6280546;22;20015;-89
2023/04/01 02:52:56;;;;;;;5.18;1.60;;;10.70;99.90;;;;;;6308673;22;20015;-88
2023/04/01 02:55:21;;;;;;;4.55;1.80;;;10.60;99.90;;;;;;6307555;22;20423;-88
2023/04/01 02:57:47;;;;;;;5.07;1.55;;;10.70;99.90;;;;;;6309143;22;20086;-92
2023/04/01 03:00:14;;;;;;;6.82;1.90;;;10.60;99.90;;;;;;6309231;22;20016;-93
2023/04/01 03:02:40;;;;;;;6.35;1.85;;;10.60;99.90;;;;;;6282399;22;20041;-92
2023/04/01 03:05:07;;;;;;;7.72;1.90;;;10.60;99.90;;;;;;6282484;22;20043;-93
2023/04/01 03:07:32;;;;;;;5.10;1.80;;;10.60;99.90;;;;;;6282102;22;20090;-93
2023/04/01 03:09:58;;;;;;;10.43;2.28;;;10.60;99.90;;;;;;6282629;22;20057;-93
2023/04/01 03:12:24;;;;;;;5.00;1.80;;;10.70;99.90;;;;;;6282632;22;20017;-94
2023/04/01 03:14:49;;;;;;;7.40;1.90;;;10.60;99.90;;;;;;6309655;22;20012;-93
2023/04/01 03:17:15;;;;;;;7.28;1.70;;;10.60;99.90;;;;;;6282082;22;20098;-95
2023/04/01 03:19:41;;;;;;;4.72;1.90;;;10.60;99.90;;;;;;6309696;22;20026;-93
2023/04/01 03:22:07;;;;;;;8.38;2.03;;;10.60;99.90;;;;;;6282446;22;20084;-93
2023/04/01 03:24:33;;;;;;;6.68;1.77;;;10.60;99.90;;;;;;6282053;22;20015;-93
2023/04/01 03:26:58;;;;;;;5.20;1.60;;;10.60;99.90;;;;;;6309677;22;20081;-93
2023/04/01 03:29:24;;;;;;;4.90;1.77;;;10.60;99.90;;;;;;6281851;22;20090;-94
2023/04/01 03:31:50;;;;;;;10.65;2.10;;;10.60;99.90;;;;;;6282155;22;20011;-93
2023/04/01 03:34:15;;;;;;;6.45;2.13;;;10.60;99.90;;;;;;6282241;22;20023;-93
2023/04/01 03:36:41;;;;;;;5.28;1.85;;;10.60;99.90;;;;;;6282572;22;20444;-93
2023/04/01 03:39:07;;;;;;;9.85;2.08;;;10.60;99.90;;;;;;6282311;22;20057;-93
2023/04/01 03:41:32;;;;;;;8.32;1.83;;;10.60;99.90;;;;;;6282441;22;20047;-93
2023/04/01 03:43:58;;;;;;;5.65;1.80;;;10.60;99.90;;;;;;6309178;22;20019;-93
2023/04/01 03:46:23;;;;;;;6.30;1.92;;;10.70;99.90;;;;;;6282191;22;20022;-93
2023/04/01 03:48:49;;;;;;;6.55;1.88;;;10.70;99.90;;;;;;6308404;22;20344;-92
2023/04/01 03:51:15;;;;;;;5.25;1.90;;;10.60;99.90;;;;;;6281386;22;20008;-93
2023/04/01 03:53:40;;;;;;;5.10;1.70;;;10.60;99.90;;;;;;6308560;22;20070;-93
2023/04/01 03:56:07;;;;;;;10.23;2.25;;;10.60;99.90;;;;;;6282217;22;20011;-93
2023/04/01 03:58:34;;;;;;;4.90;1.63;;;10.60;99.90;;;;;;6281650;22;20011;-93
2023/04/01 04:01:00;;;;;;;5.70;1.98;;;10.60;99.90;;;;;;6309163;22;20018;-93
2023/04/01 04:03:26;;;;;;;7.10;1.90;;;10.60;99.90;;;;;;6281759;22;20049;-93
2023/04/01 04:05:51;;;;;;;7.40;1.98;;;10.60;99.90;;;;;;6308916;22;20022;-92
2023/04/01 04:08:17;;;;;;;4.65;1.40;;;10.60;99.90;;;;;;6281330;22;20015;-92
2023/04/01 04:10:43;;;;;;;5.35;2.00;;;10.60;99.90;;;;;;6281529;22;20461;-92
2023/04/01 04:13:09;;;;;;;6.10;1.70;;;10.60;99.90;;;;;;6281945;22;20011;-93
2023/04/01 04:15:35;;;;;;;10.63;1.70;;;10.60;99.90;;;;;;6309068;22;20068;-92
2023/04/01 04:18:00;;;;;;;6.05;1.75;;;10.60;99.90;;;;;;6281530;22;20049;-92
2023/04/01 04:20:26;;;;;;;4.93;2.30;;;10.70;99.90;;;;;;6308686;22;20429;-92
2023/04/01 04:22:52;;;;;;;6.65;2.20;;;10.60;99.90;;;;;;6308804;22;20008;-93
2023/04/01 04:25:17;;;;;;;7.90;1.90;;;10.60;99.90;;;;;;6308264;22;20456;-92
2023/04/01 04:27:43;;;;;;;4.97;2.20;;;10.60;99.90;;;;;;6281695;22;20049;-93
2023/04/01 04:30:10;;;;;;;6.57;1.90;;;10.60;99.90;;;;;;6281265;22;20016;-92
2023/04/01 04:32:35;;;;;;;7.22;2.90;;;10.60;99.90;;;;;;6280962;22;20023;-93
2023/04/01 04:35:01;;;;;;;4.03;1.80;;;10.60;99.90;;;;;;6281575;22;20015;-92
2023/04/01 04:37:27;;;;;;;9.73;2.00;;;10.60;99.90;;;;;;6308538;22;20011;-93
2023/04/01 04:39:52;;;;;;;8.00;2.47;;;10.60;99.90;;;;;;6280175;22;20041;-91
2023/04/01 04:42:18;;;;;;;7.50;2.10;;;10.60;99.90;;;;;;6280790;22;20051;-93
2023/04/01 04:44:44;;;;;;;7.25;2.65;;;10.60;99.90;;;;;;6308638;22;20015;-93
2023/04/01 04:47:10;;;;;;;7.78;2.20;;;10.60;99.90;;;;;;6308230;22;20015;-92
2023/04/01 04:49:35;;;;;;;5.18;2.50;;;10.60;99.90;;;;;;6281159;22;20019;-93
2023/04/01 04:52:01;;;;;;;8.23;2.00;;;10.60;99.90;;;;;;6281377;22;20015;-91
2023/04/01 04:54:26;;;;;;;7.70;2.47;;;10.60;99.90;;;;;;6280085;22;20014;-91
2023/04/01 04:56:52;;;;;;;5.15;3.25;;;10.50;99.90;;;;;;6307622;22;20015;-91
2023/04/01 04:59:18;;;;;;;6.57;2.40;;;10.50;99.90;;;;;;6308538;22;20051;-91
2023/04/01 05:01:44;;;;;;;6.28;2.78;;;10.50;99.90;;;;;;6279847;22;20344;-91
2023/04/01 05:04:09;;;;;;;9.82;3.22;;;10.60;99.90;;;;;;6306692;22;20320;-90
2023/04/01 05:06:35;;;;;;;8.90;2.65;;;10.50;99.90;;;;;;6280669;22;20087;-91
2023/04/01 05:09:01;;;;;;;6.53;2.40;;;10.50;99.90;;;;;;6279525;22;20447;-91
2023/04/01 05:11:27;;;;;;;5.55;2.60;;;10.50;99.90;;;;;;6307548;22;20086;-92
2023/04/01 05:13:53;;;;;;;11.10;3.70;;;10.50;99.90;;;;;;6307759;22;20007;-90
2023/04/01 05:16:20;;;;;;;7.68;3.42;;;10.50;99.90;;;;;;6279337;22;20057;-93
2023/04/01 05:18:47;;;;;;;5.45;3.10;;;10.50;99.90;;;;;;6280880;22;20374;-91
2023/04/01 05:21:14;;;;;;;7.43;3.40;;;10.50;99.90;;;;;;6279453;22;20011;-94
2023/04/01 05:23:41;;;;;;;5.63;3.00;;;10.50;99.90;;;;;;6277680;22;20011;-90
2023/04/01 05:26:10;;;;;;;7.78;3.50;;;10.50;99.90;;;;;;6280092;22;20018;-91
2023/04/01 05:28:35;;;;;;;5.85;3.70;;;10.50;99.90;;;;;;6279447;22;20056;-92
2023/04/01 05:31:04;;;;;;;8.50;4.50;;;10.50;99.90;;;;;;6307332;22;20008;-89
2023/04/01 05:33:30;;;;;;;7.43;3.67;;;10.50;99.90;;;;;;6280141;22;20019;-91
2023/04/01 05:35:57;;;;;;;4.55;2.92;;;10.50;99.90;;;;;;6279576;22;20072;-92
2023/04/01 05:38:23;;;;;;;7.68;3.60;;;10.50;99.90;;;;;;6280596;22;20016;-91
2023/04/01 05:40:48;;;;;;;6.60;4.47;;;10.50;99.90;;;;;;6281560;22;20034;-94
2023/04/01 05:43:14;;;;;;;7.00;4.15;;;10.50;99.90;;;;;;6280579;22;20011;-93
2023/04/01 05:45:39;;;;;;;7.72;3.40;;;10.50;99.90;;;;;;6281150;22;20073;-93
2023/04/01 05:48:05;;;;;;;12.73;4.78;;;10.50;99.90;;;;;;6308616;22;20019;-94
2023/04/01 05:50:31;;;;;;;8.23;4.13;;;10.50;99.90;;;;;;6281243;22;20103;-94
2023/04/01 05:52:57;;;;;;;7.90;6.35;;;10.60;99.90;;;;;;6283025;22;20007;-94
2023/04/01 05:55:22;;;;;;;6.50;4.95;;;10.50;99.90;;;;;;6309995;22;20505;-94
2023/04/01 05:57:49;;;;;;;9.05;4.45;;;10.50;99.90;;;;;;6310315;22;20015;-93
2023/04/01 06:00:16;;;;;;;7.82;5.05;;;10.60;99.90;;;;;;6310583;22;20052;-94
2023/04/01 06:02:42;;;;;;;10.68;5.35;;;10.50;99.90;;;;;;6283002;22;20011;-93
2023/04/01 06:05:18;;;;;;;8.73;4.30;;;10.50;99.90;;;;;;6279477;22;20019;-88
2023/04/01 06:07:44;;;;;;;8.18;5.40;;;10.50;99.90;;;;;;6308848;22;20393;-88
2023/04/01 06:10:20;;;;;;;7.57;4.93;;;10.50;99.90;;;;;;6308901;22;20012;-89
2023/04/01 06:13:06;;;;;;;9.27;5.20;;;10.50;99.90;;;;;;6309174;22;20008;-87
2023/04/01 06:15:35;;;;;;;7.13;5.07;;;10.50;99.90;;;;;;6307998;22;20387;-87
2023/04/01 06:18:02;;;;;;;10.23;5.38;;;10.50;99.90;;;;;;6280447;22;20045;-89
2023/04/01 06:20:49;;;;;;;11.07;5.13;;;10.50;99.90;;;;;;6309377;22;20015;-89
2023/04/01 06:23:17;;;;;;;8.68;5.00;;;10.50;99.90;;;;;;6308381;22;20094;-90
2023/04/01 06:25:48;;;;;;;8.15;5.00;;;10.50;99.90;;;;;;6308770;22;20015;-90
2023/04/01 06:28:48;;;;;;;6.88;5.20;;;10.50;99.90;;;;;;6308945;22;20026;-91
2023/04/01 06:31:38;;;;;;;10.88;4.95;;;10.50;99.90;;;;;;6309193;22;20019;-91
2023/04/01 06:34:28;;;;;;;7.05;4.80;;;10.50;99.90;;;;;;6313190;22;20054;-96
2023/04/01 06:37:21;;;;;;;7.20;4.55;;;10.50;99.90;;;;;;6311142;22;20011;-94
2023/04/01 06:39:53;;;;;;;7.63;4.65;;;10.50;99.90;;;;;;6285115;22;20026;-94
2023/04/01 06:42:34;;;;;;;9.45;4.70;;;10.50;99.90;;;;;;6283621;22;20466;-94
2023/04/01 06:45:11;;;;;;;7.95;4.60;;;10.50;99.90;;;;;;6309442;22;20094;-93
2023/04/01 06:48:05;;;;;;;5.78;3.95;;;10.50;99.90;;;;;;6309401;22;20019;-93
2023/04/01 06:51:06;;;;;;;7.68;4.32;;;10.50;99.90;;;;;;6282486;22;20061;-94
2023/04/01 06:53:47;;;;;;;8.35;4.45;;;10.40;99.90;;;;;;6261060;22;20069;-91
2023/04/01 06:56:19;;;;;;;8.05;4.63;;;10.40;99.90;;;;;;6281646;22;20016;-91
2023/04/01 06:58:57;;;;;;;7.72;4.55;;;10.50;99.90;;;;;;6281674;22;20050;-91
2023/04/01 07:01:29;;;;;;;7.78;4.32;;;10.50;99.90;;;;;;6279863;22;20385;-90
2023/04/01 07:04:31;;;;;;;10.63;5.55;;;10.50;99.90;;;;;;6281470;22;20019;-91
2023/04/01 07:07:19;;;;;;;9.15;5.18;;;10.50;99.90;;;;;;6274788;22;20012;-89
2023/04/01 07:09:51;;;;;;;10.27;5.25;;;10.40;99.90;;;;;;6280971;22;20011;-89
2023/04/01 07:12:26;;;;;;;7.75;5.00;;;10.40;99.90;;;;;;6287342;22;20352;-88
2023/04/01 07:14:56;;;;;;;8.93;4.50;;;10.50;99.90;;;;;;6280185;22;20019;-88
2023/04/01 07:17:27;;;;;;;8.30;5.20;;;10.50;99.90;;;;;;6280463;22;20015;-90
2023/04/01 07:20:26;;;;;;;10.43;5.93;;;10.40;99.90;;;;;;6308759;22;20007;-89
2023/04/01 07:22:57;;;;;;;9.98;5.22;;;10.50;99.90;;;;;;6275460;22;20019;-91
2023/04/01 07:25:31;;;;;;;9.27;6.93;;;10.40;99.90;;;;;;6281481;22;20086;-91
2023/04/01 07:28:00;;;;;;;;;;;10.50;99.90;;;;;;6308668;22;20057;-91
2023/04/01 07:30:30;;;;;;;12.32;7.10;;;10.40;99.90;;;;;;6307905;22;19918;-89
2023/04/01 07:33:21;;;;;;;9.98;6.47;;;10.40;99.90;;;;;;6281509;22;20063;-91
2023/04/01 07:36:17;;;;;;;9.57;5.95;;;10.40;99.90;;;;;;6280787;22;20031;-91
2023/04/01 07:39:10;;;;;;;11.63;6.57;;;10.40;99.90;;;;;;6224531;22;20045;-92
2023/04/01 07:42:25;;;;;;;12.13;7.13;;;10.40;99.90;;;;;;6309695;22;20015;-90
2023/04/01 07:44:57;;;;;;;12.93;7.03;;;10.50;99.90;;;;;;6194066;22;20019;-92
2023/04/01 07:47:34;;;;;;;15.05;7.72;;;10.50;99.90;;;;;;6303720;22;20019;-89
2023/04/01 07:50:21;;;;;;;10.95;7.63;;;10.50;99.90;;;;;;6308380;22;20041;-92
2023/04/01 07:53:05;;;;;;;11.52;8.63;;;10.50;99.90;;;;;;6281097;22;20388;-89
2023/04/01 07:55:46;;;;;;;11.60;9.23;;;10.60;99.90;;;;;;6279967;22;20344;-89
2023/04/01 07:58:17;;;;;;;10.80;9.70;;;10.60;99.90;;;;;;6279999;22;20011;-89
2023/04/01 08:01:06;;;;;;;11.52;9.40;;;10.60;99.90;;;;;;6279562;22;20045;-90
2023/04/01 08:03:52;;;;;;;11.23;7.63;;;10.60;99.90;;;;;;6280975;22;20008;-96
2023/04/01 08:06:42;;;;;;;11.32;9.25;;;10.70;99.90;;;;;;6302758;22;20019;-96
2023/04/01 08:09:32;;;;;;;12.13;9.95;;;10.70;99.90;;;;;;6294118;22;20007;-96
2023/04/01 08:12:07;;;;;;;13.68;8.70;;;10.70;99.90;;;;;;6283756;22;20015;-89
2023/04/01 08:15:05;;;;;;;13.20;7.82;;;10.80;99.90;;;;;;6309923;22;20065;-89
2023/04/01 08:17:36;;;;;;;15.40;9.85;;;10.80;99.90;;;;;;6305619;22;20061;-89
2023/04/01 08:20:23;;;;;;;15.23;9.60;;;10.80;99.90;;;;;;6308125;22;20018;-89
2023/04/01 08:22:53;;;;;;;11.65;8.25;;;10.80;99.90;;;;;;6280567;22;20015;-91
2023/04/01 08:25:24;;;;;;;11.55;8.13;;;10.90;99.90;;;;;;6279493;22;20090;-89
2023/04/01 08:28:23;;;;;;;14.02;9.65;;;10.90;99.90;;;;;;6280916;22;20436;-90
2023/04/01 08:31:10;;;;;;;11.82;9.73;;;10.90;99.90;;;;;;6280639;22;20015;-90
2023/04/01 08:33:37;;;;;;;11.65;8.95;;;10.90;99.90;;;;;;6280929;22;20036;-91
2023/04/01 08:36:27;;;;;;;12.90;9.57;;;11.00;99.90;;;;;;6280665;22;20015;-91
2023/04/01 08:39:03;;;;;;;11.68;8.75;;;11.00;99.90;;;;;;6280162;22;20313;-90
2023/04/01 08:41:50;;;;;;;13.18;9.30;;;11.00;99.90;;;;;;6308136;22;20011;-90
2023/04/01 08:44:25;;;;;;;13.15;9.40;;;11.00;99.90;;;;;;6280920;22;20072;-91
2023/04/01 08:47:11;;;;;;;11.68;9.02;;;11.00;99.90;;;;;;6280220;22;20019;-90
2023/04/01 08:49:52;;;;;;;13.63;10.00;;;11.10;99.90;;;;;;6280598;22;20015;-90
2023/04/01 08:52:33;;;;;;;12.68;10.60;;;11.10;99.90;;;;;;6279874;22;20015;-91
2023/04/01 08:55:27;;;;;;;13.82;10.30;;;11.10;99.90;;;;;;6281003;22;20019;-91
2023/04/01 08:58:30;;;;;;;11.50;9.25;;;11.10;99.90;;;;;;6290334;22;20012;-91
2023/04/01 09:01:11;;;;;;;13.30;9.30;;;11.10;99.90;;;;;;6280029;22;20321;-90
2023/04/01 09:03:45;;;;;;;12.40;8.43;;;11.10;99.90;;;;;;6308624;22;20015;-91
2023/04/01 09:06:50;;;;;;;11.55;9.10;;;11.10;99.90;;;;;;6307549;22;20098;-90
2023/04/01 09:09:45;;;;;;;11.93;9.30;;;11.10;99.90;;;;;;6280568;22;20047;-92
2023/04/01 09:12:31;;;;;;;12.48;8.93;;;11.10;99.90;;;;;;6280903;22;20011;-90
2023/04/01 09:15:02;;;;;;;12.68;9.30;;;11.10;99.90;;;;;;6280631;22;20099;-91
2023/04/01 09:17:55;;;;;;;13.30;8.73;;;11.20;99.90;;;;;;6280895;22;20065;-91
2023/04/01 09:20:39;;;;;;;10.88;8.38;;;11.20;99.90;;;;;;6279940;22;20011;-91
2023/04/01 09:23:20;;;;;;;11.50;8.95;;;11.20;99.90;;;;;;6281065;22;20019;-91
2023/04/01 09:25:54;;;;;;;13.73;9.15;;;11.20;99.90;;;;;;6281327;22;20015;-90
2023/04/01 09:28:33;;;;;;;11.07;8.93;;;11.20;99.90;;;;;;6309338;22;20022;-91
2023/04/01 09:31:18;;;;;;;12.35;9.10;;;11.20;99.90;;;;;;6310387;22;20407;-91
2023/04/01 09:34:12;;;;;;;14.57;10.15;;;11.20;99.90;;;;;;6282710;22;20015;-91
2023/04/01 09:36:40;;;;;;;14.55;9.88;;;11.20;99.90;;;;;;6310545;22;20055;-90
2023/04/01 09:39:40;;;;;;;12.23;9.68;;;11.30;99.90;;;;;;6282893;22;20451;-92
2023/04/01 09:42:23;;;;;;;12.23;10.38;;;11.20;99.90;;;;;;6273391;22;20524;-91
2023/04/01 09:45:01;;;;;;;12.13;9.60;;;11.30;99.90;;;;;;6259261;22;20049;-91
2023/04/01 09:47:48;;;;;;;15.00;9.10;;;11.30;99.90;;;;;;6282817;22;20095;-92
2023/04/01 09:50:32;;;;;;;13.13;9.32;;;11.30;99.90;;;;;;6282393;22;20088;-92
2023/04/01 09:53:12;;;;;;;11.77;9.95;;;11.30;99.90;;;;;;6282799;22;20007;-91
2023/04/01 09:55:50;;;;;;;11.88;10.43;;;11.30;99.90;;;;;;6310160;22;20023;-92
2023/04/01 09:58:42;;;;;;;13.10;10.93;;;11.40;99.90;;;;;;6310337;22;20019;-93
2023/04/01 10:01:22;;;;;;;16.73;10.60;;;11.40;99.90;;;;;;6283324;22;20014;-92
2023/04/01 10:04:12;;;;;;;14.23;10.35;;;11.50;99.90;;;;;;6282430;22;20019;-91
2023/04/01 10:07:02;;;;;;;13.10;9.70;;;11.40;99.90;;;;;;6310552;22;20038;-91
2023/04/01 10:09:46;;;;;;;12.93;9.77;;;11.50;99.90;;;;;;6309557;22;20015;-91
2023/04/01 10:12:24;;;;;;;13.82;10.00;;;11.50;99.90;;;;;;6282595;22;20022;-92
2023/04/01 10:15:18;;;;;;;12.68;8.57;;;11.50;99.90;;;;;;6287134;22;20053;-93
2023/04/01 10:18:17;;;;;;;10.77;8.48;;;11.50;99.90;;;;;;6287389;22;20015;-94
2023/04/01 10:21:14;;;;;;;10.52;8.15;;;11.60;99.90;;;;;;6284062;22;20012;-93
2023/04/01 10:24:06;;;;;;;10.20;8.82;;;11.60;99.90;;;;;;6309411;22;20335;-94
2023/04/01 10:26:37;;;;;;;10.15;7.32;;;11.60;99.90;;;;;;6282988;22;20098;-94
2023/04/01 10:29:21;;;;;;;10.02;8.13;;;11.60;99.90;;;;;;6283429;22;20137;-95
2023/04/01 10:32:10;;;;;;;10.45;7.18;;;11.60;99.90;;;;;;6320933;22;20015;-91
2023/04/01 10:35:05;;;;;;;10.73;6.47;;;11.60;99.90;;;;;;6289683;22;20097;-96
2023/04/01 10:38:04;;;;;;;8.82;7.30;;;11.60;99.90;;;;;;6286052;22;20125;-96
2023/04/01 10:40:56;;;;;;;8.32;6.25;;;11.60;99.90;;;;;;6315319;22;20019;-93
2023/04/01 10:43:57;;;;;;;11.43;6.93;;;11.60;99.90;;;;;;6319869;22;20530;-96
2023/04/01 10:46:54;;;;;;;9.05;5.95;;;11.60;99.90;;;;;;6270012;22;20023;-95
2023/04/01 10:49:38;;;;;;;8.50;6.10;;;11.60;99.90;;;;;;6253768;22;20415;-93
2023/04/01 10:52:33;;;;;;;8.40;5.07;;;11.50;99.90;;;;;;6253472;22;20011;-92
2023/04/01 10:55:19;;;;;;;7.75;4.82;;;11.50;99.90;;;;;;6281398;22;20070;-95
2023/04/01 10:58:11;;;;;;;6.97;4.32;;;11.50;99.90;;;;;;6279370;22;20016;-94
2023/04/01 11:01:07;;;;;;;8.13;4.80;;;11.60;99.90;;;;;;6252405;22;20090;-95
2023/04/01 11:04:05;;;;;;;7.45;4.78;;;11.50;99.90;;;;;;6252829;22;20058;-93
2023/04/01 11:07:30;;;;;;;7.07;4.55;;;11.50;99.90;;;;;;6257461;22;20034;-96
2023/04/01 11:10:43;;;;;;;7.83;4.50;;;11.50;99.90;;;;;;6256842;22;20019;-96
2023/04/01 11:13:59;;;;;;;9.65;4.57;;;11.50;99.90;;;;;;6233089;22;20243;-96
2023/04/01 11:16:47;;;;;;;9.65;4.45;;;11.50;99.90;;;;;;6289751;22;20015;-96
2023/04/01 11:20:02;;;;;;;9.13;3.97;;;11.50;99.90;;;;;;6242630;22;20099;-96
2023/04/01 11:22:53;;;;;;;7.47;4.50;;;11.50;99.90;;;;;;6293945;22;20020;-96
2023/04/01 11:25:40;;;;;;;8.98;4.70;;;11.50;99.90;;;;;;6280577;22;20069;-90
2023/04/01 11:28:05;;;;;;;6.63;3.83;;;11.50;99.90;;;;;;6254267;22;20020;-92
2023/04/01 11:30:59;;;;;;;6.45;3.88;;;11.50;99.90;;;;;;6250089;22;20408;-96
2023/04/01 11:33:33;;;;;;;6.90;3.83;;;11.50;99.90;;;;;;6278190;22;20099;-95
2023/04/01 11:36:11;;;;;;;11.80;3.97;;;11.50;99.90;;;;;;6251740;22;20054;-92
2023/04/01 11:38:45;;;;;;;7.38;3.58;;;11.50;99.90;;;;;;6283947;22;20016;-94
2023/04/01 11:41:27;;;;;;;5.97;3.67;;;11.40;99.90;;;;;;6258248;22;20026;-94
2023/04/01 11:44:17;;;;;;;5.88;3.60;;;11.40;99.90;;;;;;6263153;22;20021;-94
2023/04/01 11:47:21;;;;;;;6.32;3.30;;;11.40;99.90;;;;;;6289540;22;20470;-95
2023/04/01 11:50:01;;;;;;;8.48;3.30;;;11.40;99.90;;;;;;6316355;22;20431;-94
2023/04/01 11:52:59;;;;;;;6.28;3.15;;;11.40;99.90;;;;;;6314741;22;20018;-95
2023/04/01 11:55:59;;;;;;;5.97;2.97;;;11.40;99.90;;;;;;6238819;22;20069;-95
2023/04/01 11:58:50;;;;;;;6.13;2.90;;;11.40;99.90;;;;;;6296366;22;20018;-94
2023/04/01 12:01:46;;;;;;;8.07;2.88;;;11.40;99.90;;;;;;6296578;22;20045;-96
2023/04/01 12:04:22;;;;;;;6.75;2.75;;;11.40;99.90;;;;;;6321355;22;20015;-95
2023/04/01 12:06:48;;;;;;;5.28;2.83;;;11.40;99.90;;;;;;6325899;22;20004;-95
2023/04/01 12:09:55;;;;;;;8.65;3.22;;;11.40;99.90;;;;;;6295088;22;20030;-95
2023/04/01 12:12:42;;;;;;;7.22;2.60;;;11.50;99.90;;;;;;6294420;22;20024;-95
2023/04/01 12:15:46;;;;;;;6.65;2.80;;;11.40;99.90;;;;;;6297824;22;20019;-95
2023/04/01 12:18:27;;;;;;;5.95;2.72;;;11.50;99.90;;;;;;6322571;22;20046;-96
2023/04/01 12:21:41;;;;;;;8.13;2.70;;;11.50;99.90;;;;;;6296295;22;20054;-95
2023/04/01 12:24:35;;;;;;;5.88;2.90;;;11.50;99.90;;;;;;6284446;22;20339;-96
2023/04/01 12:27:21;;;;;;;7.43;2.78;;;11.40;99.90;;;;;;6321560;22;20022;-96
2023/04/01 12:30:14;;;;;;;6.60;2.90;;;11.50;99.90;;;;;;6319797;22;20023;-95
2023/04/01 12:32:54;;;;;;;6.00;2.90;;;11.50;99.90;;;;;;6292333;22;20011;-96
2023/04/01 12:35:44;;;;;;;5.07;2.80;;;11.50;99.90;;;;;;6292864;22;20022;-95
2023/04/01 12:38:24;;;;;;;7.28;2.72;;;11.50;99.90;;;;;;6287282;22;20023;-95
2023/04/01 12:41:25;;;;;;;5.47;2.65;;;11.50;99.90;;;;;;6313017;22;20022;-95
2023/04/01 12:44:22;;;;;;;4.53;2.60;;;11.50;99.90;;;;;;6307356;22;20367;-96
2023/04/01 12:46:53;;;;;;;5.25;2.33;;;11.50;99.90;;;;;;6286406;22;20525;-96
2023/04/01 12:49:34;;;;;;;5.72;2.38;;;11.50;99.90;;;;;;6285700;22;20460;-96
2023/04/01 12:52:14;;;;;;;4.50;2.30;;;11.50;99.90;;;;;;6287630;22;20015;-95
2023/04/01 12:55:03;;;;;;;3.97;2.15;;;11.50;99.90;;;;;;6290460;22;20018;-96
2023/04/01 12:58:06;;;;;;;4.35;2.40;;;11.50;99.90;;;;;;6294224;22;20017;-96
2023/04/01 13:01:09;;;;;;;7.10;2.60;;;11.50;99.90;;;;;;6283332;22;20026;-94
2023/04/01 13:03:48;;;;;;;5.67;2.40;;;11.40;99.90;;;;;;6283923;22;20023;-94
2023/04/01 13:06:17;;;;;;;5.93;2.42;;;11.40;99.90;;;;;;6284754;22;20026;-95
2023/04/01 13:08:51;;;;;;;6.30;2.63;;;11.40;99.90;;;;;;6283958;22;20018;-95
2023/04/01 13:11:28;;;;;;;4.43;2.53;;;11.40;99.90;;;;;;6312680;22;20067;-96
2023/04/01 13:14:32;;;;;;;6.32;2.67;;;11.40;99.90;;;;;;6312095;22;20010;-95
2023/04/01 13:17:19;;;;;;;7.68;2.80;;;11.40;99.90;;;;;;6309647;22;20086;-94
2023/04/01 13:20:01;;;;;;;7.00;2.63;;;11.40;99.90;;;;;;6309253;22;20334;-95
2023/04/01 13:22:41;;;;;;;4.95;2.33;;;11.40;99.90;;;;;;6286760;22;20015;-96
2023/04/01 13:25:36;;;;;;;8.70;2.63;;;11.40;99.90;;;;;;6312310;22;20019;-95
2023/04/01 13:28:13;;;;;;;8.07;2.75;;;11.30;99.90;;;;;;6283369;22;20019;-94
2023/04/01 13:30:55;;;;;;;6.32;3.00;;;11.30;99.90;;;;;;6281207;22;20094;-91
2023/04/01 13:33:45;;;;;;;5.47;2.75;;;11.30;99.90;;;;;;6280510;22;20013;-92
2023/04/01 13:36:24;;;;;;;5.05;2.58;;;11.30;99.90;;;;;;6308356;22;20015;-93